Time;durP1;ratioP1;P1;durP2;ratioP2;P2;SDS_P1;SDS_P2;PMS_P1;PMS_P2;Temp;Humidity;BMP_temperature;BMP_pressure;BME280_temperature;BME280_humidity;BME280_pressure;Samples;Min_cycle;Max_cycle;Signal;HPM_P1;HPM_P2
2022/10/20 00:02:19;;;;;;;;;;;;;;;8.19;60.98;102571.03;5060742;28;19936;-63
2022/10/20 00:04:44;;;;;;;;;;;;;;;8.15;60.96;102570.25;5060990;28;19921;-59
2022/10/20 00:07:10;;;;;;;;;;;;;;;8.12;61.06;102570.28;5066878;28;19920;-65
2022/10/20 00:09:35;;;;;;;;;;;;;;;8.11;60.97;102571.19;5059575;28;19931;-63
2022/10/20 00:12:00;;;;;;;;;;;;;;;8.09;60.84;102567.75;5067833;28;19916;-61
2022/10/20 00:14:26;;;;;;;;;;;;;;;8.07;60.88;102570.38;5044950;28;20002;-63
2022/10/20 00:16:51;;;;;;;;;;;;;;;8.07;61.12;102574.78;5016541;28;19934;-61
2022/10/20 00:19:16;;;;;;;;;;;;;;;8.09;60.80;102573.00;5062549;28;19998;-62
2022/10/20 00:21:42;;;;;;;;;;;;;;;8.08;60.71;102579.97;5056805;28;19924;-62
2022/10/20 00:24:07;;;;;;;;;;;;;;;8.09;60.74;102579.09;5052403;28;19928;-60
2022/10/20 00:26:32;;;;;;;;;;;;;;;8.09;60.61;102583.47;5061091;28;20386;-62
2022/10/20 00:28:58;;;;;;;;;;;;;;;8.05;60.75;102581.78;5054715;28;19928;-63
2022/10/20 00:31:24;;;;;;;;;;;;;;;8.04;60.91;102580.06;5058172;28;20337;-59
2022/10/20 00:33:52;;;;;;;;;;;;;;;8.04;60.71;102580.06;5064368;28;19920;-64
2022/10/20 00:36:19;;;;;;;;;;;;;;;8.06;60.87;102578.28;5063534;28;19974;-62
2022/10/20 00:38:44;;;;;;;;;;;;;;;8.05;60.80;102576.56;5068019;28;20061;-63
2022/10/20 00:41:13;;;;;;;;;;;;;;;8.03;60.72;102579.19;5065985;28;20015;-63
2022/10/20 00:43:49;;;;;;;;;;;;;;;8.02;60.61;102571.34;5065704;28;19920;-63
2022/10/20 00:46:17;;;;;;;;;;;;;;;8.02;61.18;102571.34;5062132;28;19928;-64
2022/10/20 00:48:44;;;;;;;;;;;;;;;8.03;60.56;102568.69;5062465;28;19927;-61
2022/10/20 00:51:11;;;;;;;;;;;;;;;8.03;60.45;102567.84;5066780;28;19924;-61
2022/10/20 00:53:36;;;;;;;;;;;;;;;8.00;60.58;102555.66;5065034;28;19931;-61
2022/10/20 00:56:02;;;;;;;;;;;;;;;7.98;60.68;102559.19;5065276;28;19916;-62
2022/10/20 00:58:27;;;;;;;;;;;;;;;7.92;60.59;102562.78;5066246;28;19970;-62
2022/10/20 01:00:55;;;;;;;;;;;;;;;7.90;60.57;102557.59;5063513;28;19928;-62
2022/10/20 01:03:30;;;;;;;;;;;;;;;7.88;60.72;102558.47;5062423;28;20389;-62
2022/10/20 01:05:56;;;;;;;;;;;;;;;7.87;60.65;102557.63;5059773;28;20208;-63
2022/10/20 01:08:21;;;;;;;;;;;;;;;7.87;60.63;102551.50;5063548;28;19917;-63
2022/10/20 01:10:53;;;;;;;;;;;;;;;7.85;60.46;102548.91;5062585;28;20296;-62
2022/10/20 01:13:23;;;;;;;;;;;;;;;7.82;60.51;102551.59;5064741;28;20369;-62
2022/10/20 01:15:59;;;;;;;;;;;;;;;7.81;60.57;102555.09;5061753;28;20010;-63
2022/10/20 01:18:30;;;;;;;;;;;;;;;7.77;60.70;102556.91;5067908;28;20373;-61
2022/10/20 01:21:13;;;;;;;;;;;;;;;7.75;60.69;102553.44;5061893;28;19928;-61
2022/10/20 01:23:45;;;;;;;;;;;;;;;7.73;60.71;102554.38;5065709;28;19916;-59
2022/10/20 01:26:29;;;;;;;;;;;;;;;7.70;60.53;102546.56;5065337;28;20378;-63
2022/10/20 01:28:59;;;;;;;;;;;;;;;7.67;60.38;102549.22;5065414;28;20447;-63
2022/10/20 01:31:32;;;;;;;;;;;;;;;7.63;60.75;102554.53;5061936;28;19916;-62
2022/10/20 01:34:29;;;;;;;;;;;;;;;7.61;60.72;102551.06;5063124;28;19920;-63
2022/10/20 01:36:55;;;;;;;;;;;;;;;7.60;60.65;102549.34;5011786;28;19916;-61
2022/10/20 01:39:24;;;;;;;;;;;;;;;7.57;60.61;102554.63;5064525;28;19919;-62
2022/10/20 01:41:56;;;;;;;;;;;;;;;7.56;60.41;102542.41;5058016;28;19935;-61
2022/10/20 01:44:22;;;;;;;;;;;;;;;7.57;60.54;102548.50;5064547;28;19951;-60
2022/10/20 01:46:48;;;;;;;;;;;;;;;7.53;60.49;102542.47;5060496;28;19920;-59
2022/10/20 01:49:13;;;;;;;;;;;;;;;7.49;60.72;102538.16;5054131;28;20483;-59
2022/10/20 01:51:39;;;;;;;;;;;;;;;7.45;60.35;102549.59;5049405;28;20382;-60
2022/10/20 01:54:04;;;;;;;;;;;;;;;7.41;61.02;102545.28;5066811;28;20460;-62
2022/10/20 01:56:48;;;;;;;;;;;;;;;7.37;60.90;102535.72;5067291;28;19920;-60
2022/10/20 01:59:39;;;;;;;;;;;;;;;7.33;60.84;102542.78;5068842;28;19920;-60
2022/10/20 02:02:16;;;;;;;;;;;;;;;7.28;60.81;102529.75;5036471;28;19928;-59
2022/10/20 02:04:50;;;;;;;;;;;;;;;7.25;60.69;102536.81;5066048;28;20404;-61
2022/10/20 02:07:22;;;;;;;;;;;;;;;7.22;61.05;102523.75;5069152;28;19931;-62
2022/10/20 02:09:51;;;;;;;;;;;;;;;7.19;61.08;102524.63;5065526;28;20018;-62
2022/10/20 02:12:20;;;;;;;;;;;;;;;7.18;60.86;102515.09;5060891;28;19924;-62
2022/10/20 02:14:47;;;;;;;;;;;;;;;7.19;61.26;102514.16;5063375;28;19916;-61
2022/10/20 02:17:14;;;;;;;;;;;;;;;7.18;61.17;102509.84;5059955;28;20465;-59
2022/10/20 02:19:41;;;;;;;;;;;;;;;7.15;61.12;102505.50;5065519;28;19932;-59
2022/10/20 02:22:07;;;;;;;;;;;;;;;7.13;61.24;102509.03;5063365;28;19920;-62
2022/10/20 02:24:37;;;;;;;;;;;;;;;7.12;61.22;102510.78;5063791;28;19931;-62
2022/10/20 02:27:22;;;;;;;;;;;;;;;7.12;61.14;102504.69;5065475;28;19920;-60
2022/10/20 02:29:54;;;;;;;;;;;;;;;7.11;61.09;102497.72;5065711;28;19912;-59
2022/10/20 02:32:20;;;;;;;;;;;;;;;7.09;60.89;102494.25;5066250;28;20408;-62
2022/10/20 02:34:46;;;;;;;;;;;;;;;7.08;61.27;102487.28;5068500;28;19939;-61
2022/10/20 02:37:11;;;;;;;;;;;;;;;7.05;61.02;102489.94;5067962;28;19920;-60
2022/10/20 02:39:37;;;;;;;;;;;;;;;7.04;61.16;102496.06;5074052;28;20266;-61
2022/10/20 02:42:02;;;;;;;;;;;;;;;6.99;61.14;102494.41;5066930;28;19924;-61
2022/10/20 02:44:27;;;;;;;;;;;;;;;6.97;61.12;102480.47;5069360;28;19965;-58
2022/10/20 02:46:53;;;;;;;;;;;;;;;6.97;61.20;102477.84;5064384;28;19916;-59
2022/10/20 02:49:20;;;;;;;;;;;;;;;6.94;60.84;102479.66;5062098;28;19924;-57
2022/10/20 02:51:45;;;;;;;;;;;;;;;6.92;61.14;102477.03;5064877;28;19920;-57
2022/10/20 02:54:10;;;;;;;;;;;;;;;6.91;61.10;102480.56;5070493;28;19916;-60
2022/10/20 02:56:36;;;;;;;;;;;;;;;6.89;60.96;102482.31;5070921;28;19924;-60
2022/10/20 02:59:01;;;;;;;;;;;;;;;6.88;61.36;102483.25;5070168;28;20000;-58
2022/10/20 03:01:26;;;;;;;;;;;;;;;6.88;61.16;102475.38;5064481;28;19928;-56
2022/10/20 03:03:57;;;;;;;;;;;;;;;6.88;61.39;102485.84;5068344;28;19920;-60
2022/10/20 03:06:22;;;;;;;;;;;;;;;6.88;61.18;102482.34;5070046;28;19924;-59
2022/10/20 03:08:48;;;;;;;;;;;;;;;6.86;61.11;102485.00;5070313;28;19928;-59
2022/10/20 03:11:13;;;;;;;;;;;;;;;6.83;61.09;102485.03;5070911;28;20016;-59
2022/10/20 03:13:38;;;;;;;;;;;;;;;6.79;61.19;102475.50;5068712;28;19958;-57
2022/10/20 03:16:04;;;;;;;;;;;;;;;6.76;61.21;102475.53;5065003;28;19927;-57
2022/10/20 03:18:29;;;;;;;;;;;;;;;6.74;61.30;102472.06;5067237;28;19932;-57
2022/10/20 03:20:54;;;;;;;;;;;;;;;6.71;61.39;102473.88;5062807;28;19928;-64
2022/10/20 03:23:20;;;;;;;;;;;;;;;6.70;61.37;102469.53;5067568;28;19931;-60
2022/10/20 03:25:45;;;;;;;;;;;;;;;6.69;61.20;102465.16;5071264;28;19931;-56
2022/10/20 03:28:10;;;;;;;;;;;;;;;6.67;61.50;102456.47;5067601;28;19917;-56
2022/10/20 03:30:36;;;;;;;;;;;;;;;6.66;61.37;102454.75;5068104;28;20466;-59
2022/10/20 03:33:01;;;;;;;;;;;;;;;6.64;61.34;102464.34;5050216;28;19920;-57
2022/10/20 03:35:27;;;;;;;;;;;;;;;6.62;61.48;102468.75;5069967;28;19924;-57
2022/10/20 03:37:52;;;;;;;;;;;;;;;6.60;61.51;102470.50;5067285;28;19935;-58
2022/10/20 03:40:17;;;;;;;;;;;;;;;6.59;61.37;102468.78;5067585;28;20458;-60
2022/10/20 03:42:42;;;;;;;;;;;;;;;6.58;61.79;102460.97;5068597;28;19927;-57
2022/10/20 03:45:08;;;;;;;;;;;;;;;6.55;61.22;102467.09;5067443;28;19931;-59
2022/10/20 03:47:33;;;;;;;;;;;;;;;6.54;61.72;102465.38;5063528;28;19920;-59
2022/10/20 03:49:59;;;;;;;;;;;;;;;6.55;61.47;102467.09;5062265;28;19924;-56
2022/10/20 03:52:24;;;;;;;;;;;;;;;6.54;61.22;102449.69;5068035;28;19932;-61
2022/10/20 03:54:50;;;;;;;;;;;;;;;6.55;61.36;102446.19;5066536;28;19928;-57
2022/10/20 03:57:15;;;;;;;;;;;;;;;6.54;61.21;102437.47;5069368;28;20011;-59
2022/10/20 03:59:40;;;;;;;;;;;;;;;6.54;61.24;102445.31;5069097;28;20019;-61
2022/10/20 04:02:06;;;;;;;;;;;;;;;6.54;61.58;102444.44;5062268;28;19924;-58
2022/10/20 04:04:31;;;;;;;;;;;;;;;6.54;61.52;102439.22;5048667;28;19928;-61
2022/10/20 04:06:56;;;;;;;;;;;;;;;6.53;61.22;102434.88;5068952;28;19939;-57
2022/10/20 04:09:22;;;;;;;;;;;;;;;6.50;61.30;102437.53;5068860;28;19924;-58
2022/10/20 04:11:47;;;;;;;;;;;;;;;6.47;61.19;102437.56;5066724;28;20476;-59
2022/10/20 04:14:12;;;;;;;;;;;;;;;6.44;61.34;102430.63;5065901;28;20498;-60
2022/10/20 04:16:38;;;;;;;;;;;;;;;6.43;61.56;102430.66;5066811;28;19923;-61
2022/10/20 04:19:03;;;;;;;;;;;;;;;6.43;61.63;102430.66;5062791;28;19929;-62
2022/10/20 04:21:28;;;;;;;;;;;;;;;6.41;61.61;102428.03;5058799;28;19924;-59
2022/10/20 04:23:54;;;;;;;;;;;;;;;6.41;61.22;102433.28;5063307;28;19924;-60
2022/10/20 04:26:19;;;;;;;;;;;;;;;6.40;61.30;102435.03;5067014;28;19928;-57
2022/10/20 04:28:44;;;;;;;;;;;;;;;6.38;61.60;102439.44;5057984;28;19924;-59
2022/10/20 04:31:09;;;;;;;;;;;;;;;6.35;61.45;102439.47;5052266;28;19920;-59
2022/10/20 04:33:35;;;;;;;;;;;;;;;6.36;61.60;102428.13;5049591;28;19928;-59
2022/10/20 04:36:03;;;;;;;;;;;;;;;6.38;61.51;102418.50;5055776;28;19999;-59
2022/10/20 04:38:28;;;;;;;;;;;;;;;6.43;61.41;102430.66;5058558;28;19927;-61
2022/10/20 04:40:54;;;;;;;;;;;;;;;6.43;61.68;102414.97;5057476;28;19928;-61
2022/10/20 04:43:19;;;;;;;;;;;;;;;6.44;61.32;102416.69;5060767;28;19956;-62
2022/10/20 04:45:45;;;;;;;;;;;;;;;6.42;61.23;102408.88;5057419;28;19986;-63
2022/10/20 04:48:10;;;;;;;;;;;;;;;6.43;61.28;102409.75;5060977;28;19925;-63
2022/10/20 04:50:35;;;;;;;;;;;;;;;6.44;61.36;102416.69;5063481;28;19931;-63
2022/10/20 04:53:01;;;;;;;;;;;;;;;6.42;61.61;102408.88;5055236;28;19925;-59
2022/10/20 04:55:26;;;;;;;;;;;;;;;6.42;61.64;102413.25;5040236;28;19925;-60
2022/10/20 04:57:51;;;;;;;;;;;;;;;6.40;61.42;102406.28;5057519;28;20305;-59
2022/10/20 05:00:17;;;;;;;;;;;;;;;6.39;61.27;102409.78;5060250;28;19929;-59
2022/10/20 05:02:42;;;;;;;;;;;;;;;6.37;61.65;102406.31;5060399;28;19931;-60
2022/10/20 05:05:08;;;;;;;;;;;;;;;6.39;61.29;102403.66;5061345;28;19955;-61
2022/10/20 05:07:33;;;;;;;;;;;;;;;6.40;61.56;102411.50;5064428;28;20282;-61
2022/10/20 05:09:58;;;;;;;;;;;;;;;6.38;61.67;102400.19;5060637;28;19944;-62
2022/10/20 05:12:24;;;;;;;;;;;;;;;6.39;61.78;102399.31;5061350;28;20405;-60
2022/10/20 05:14:49;;;;;;;;;;;;;;;6.40;61.48;102394.94;5063210;28;20737;-60
2022/10/20 05:17:14;;;;;;;;;;;;;;;6.39;61.47;102396.69;5062021;28;19931;-62
2022/10/20 05:19:40;;;;;;;;;;;;;;;6.40;61.56;102397.56;5060423;28;20058;-62
2022/10/20 05:22:05;;;;;;;;;;;;;;;6.39;61.53;102394.09;5062700;28;20317;-62
2022/10/20 05:24:30;;;;;;;;;;;;;;;6.39;61.44;102399.31;5059713;28;19928;-62
2022/10/20 05:26:56;;;;;;;;;;;;;;;6.40;61.38;102390.59;5062347;28;19927;-62
2022/10/20 05:29:21;;;;;;;;;;;;;;;6.41;61.68;102388.81;5061355;28;19924;-60
2022/10/20 05:31:46;;;;;;;;;;;;;;;6.42;61.75;102382.72;5062328;28;19928;-61
2022/10/20 05:34:12;;;;;;;;;;;;;;;6.43;61.62;102388.81;5064664;28;19979;-63
2022/10/20 05:36:37;;;;;;;;;;;;;;;6.44;61.62;102386.19;5057970;28;19928;-59
2022/10/20 05:39:02;;;;;;;;;;;;;;;6.42;61.36;102387.94;5062538;28;19920;-60
2022/10/20 05:41:29;;;;;;;;;;;;;;;6.43;61.50;102388.81;5065410;28;19924;-63
2022/10/20 05:43:56;;;;;;;;;;;;;;;6.40;61.63;102390.59;5066548;28;19927;-60
2022/10/20 05:46:22;;;;;;;;;;;;;;;6.38;61.73;102387.13;5065088;28;19980;-62
2022/10/20 05:48:47;;;;;;;;;;;;;;;6.38;61.51;102396.72;5063038;28;19928;-59
2022/10/20 05:51:14;;;;;;;;;;;;;;;6.38;61.75;102394.97;5067633;28;20413;-61
2022/10/20 05:53:39;;;;;;;;;;;;;;;6.39;61.56;102395.81;5066635;28;20294;-62
2022/10/20 05:56:06;;;;;;;;;;;;;;;6.39;61.58;102401.06;5062624;28;19916;-62
2022/10/20 05:58:31;;;;;;;;;;;;;;;6.39;61.75;102401.94;5071107;28;20351;-62
2022/10/20 06:01:04;;;;;;;;;;;;;;;6.37;61.94;102395.84;5064663;28;19928;-59
2022/10/20 06:03:29;;;;;;;;;;;;;;;6.38;61.65;102394.97;5063392;28;19925;-59
2022/10/20 06:05:58;;;;;;;;;;;;;;;6.38;62.07;102399.31;5065272;28;19925;-61
2022/10/20 06:08:23;;;;;;;;;;;;;;;6.38;61.93;102391.47;5070011;28;19917;-61
2022/10/20 06:10:49;;;;;;;;;;;;;;;6.39;61.92;102401.94;5070480;28;20396;-60
2022/10/20 06:13:14;;;;;;;;;;;;;;;6.38;61.89;102401.94;5065104;28;19924;-61
2022/10/20 06:15:39;;;;;;;;;;;;;;;6.40;62.09;102394.94;5073635;28;19956;-60
2022/10/20 06:18:04;;;;;;;;;;;;;;;6.39;62.02;102404.53;5072381;28;19913;-62
2022/10/20 06:20:30;;;;;;;;;;;;;;;6.43;62.06;102401.91;5064738;28;20759;-62
2022/10/20 06:22:55;;;;;;;;;;;;;;;6.43;61.87;102407.97;5065200;28;20340;-62
2022/10/20 06:25:20;;;;;;;;;;;;;;;6.43;62.29;102409.75;5048824;28;19968;-63
2022/10/20 06:27:46;;;;;;;;;;;;;;;6.44;62.15;102403.59;5067424;28;19931;-61
2022/10/20 06:30:11;;;;;;;;;;;;;;;6.47;62.17;102398.34;5066109;28;19924;-62
2022/10/20 06:32:36;;;;;;;;;;;;;;;6.47;62.15;102383.53;5066473;28;19925;-61
2022/10/20 06:35:02;;;;;;;;;;;;;;;6.49;62.36;102393.94;5065552;28;19952;-61
2022/10/20 06:37:27;;;;;;;;;;;;;;;6.49;62.07;102384.38;5065850;28;19928;-60
2022/10/20 06:39:52;;;;;;;;;;;;;;;6.50;62.46;102390.44;5064181;28;20372;-63
2022/10/20 06:42:18;;;;;;;;;;;;;;;6.52;62.19;102388.69;5047000;28;20024;-61
2022/10/20 06:44:43;;;;;;;;;;;;;;;6.53;62.22;102390.41;5048717;28;19975;-63
2022/10/20 06:47:09;;;;;;;;;;;;;;;6.56;62.21;102390.38;5065481;28;20032;-60
2022/10/20 06:49:34;;;;;;;;;;;;;;;6.57;62.58;102394.72;5069630;28;19942;-62
2022/10/20 06:51:59;;;;;;;;;;;;;;;6.59;62.25;102395.53;5066839;28;19924;-62
2022/10/20 06:54:25;;;;;;;;;;;;;;;6.61;62.19;102399.00;5066897;28;19920;-61
2022/10/20 06:56:50;;;;;;;;;;;;;;;6.64;62.51;102391.13;5049401;28;19928;-62
2022/10/20 06:59:15;;;;;;;;;;;;;;;6.68;62.34;102402.38;5070477;28;19932;-62
2022/10/20 07:01:41;;;;;;;;;;;;;;;6.70;62.75;102403.22;5062996;28;19966;-62
2022/10/20 07:04:08;;;;;;;;;;;;;;;6.73;62.46;102408.44;5063624;28;19920;-64
2022/10/20 07:06:36;;;;;;;;;;;;;;;6.77;62.81;102409.25;5066509;28;19920;-61
2022/10/20 07:09:07;;;;;;;;;;;;;;;6.83;62.80;102409.16;5065401;28;19932;-64
2022/10/20 07:11:32;;;;;;;;;;;;;;;6.86;62.48;102417.81;5065182;28;21114;-63
2022/10/20 07:13:58;;;;;;;;;;;;;;;6.90;62.56;102405.53;5067997;28;19924;-61
2022/10/20 07:16:24;;;;;;;;;;;;;;;6.94;62.66;102415.09;5068953;28;19928;-59
2022/10/20 07:18:50;;;;;;;;;;;;;;;6.98;62.81;102419.38;5068393;28;19924;-63
2022/10/20 07:21:19;;;;;;;;;;;;;;;7.00;62.91;102417.63;5050349;28;19940;-59
2022/10/20 07:23:45;;;;;;;;;;;;;;;7.06;63.00;102416.66;5067266;28;19920;-63
2022/10/20 07:26:10;;;;;;;;;;;;;;;7.09;62.97;102415.72;5064420;28;19927;-61
2022/10/20 07:28:36;;;;;;;;;;;;;;;7.12;63.03;102407.81;5069647;28;20489;-59
2022/10/20 07:31:05;;;;;;;;;;;;;;;7.14;63.04;102404.28;5068841;28;20296;-61
2022/10/20 07:33:31;;;;;;;;;;;;;;;7.20;63.09;102418.19;5065212;28;20019;-61
2022/10/20 07:35:56;;;;;;;;;;;;;;;7.23;63.21;102408.50;5063286;28;20023;-62
2022/10/20 07:38:21;;;;;;;;;;;;;;;7.26;63.01;102412.84;5060209;28;20007;-61
2022/10/20 07:40:47;;;;;;;;;;;;;;;7.31;63.13;102409.25;5065980;28;19932;-63
2022/10/20 07:43:12;;;;;;;;;;;;;;;7.36;63.21;102411.78;5075970;28;19928;-60
2022/10/20 07:45:37;;;;;;;;;;;;;;;7.39;62.99;102405.63;5094897;22;19925;-52
2022/10/20 07:48:03;;;;;;;;;;;;;;;7.43;63.13;102409.94;5084623;28;19924;-49
2022/10/20 07:50:28;;;;;;;;;;;;;;;7.46;62.99;102409.88;5084134;28;19920;-50
2022/10/20 07:52:53;;;;;;;;;;;;;;;7.50;63.29;102411.53;5080468;28;20478;-50
2022/10/20 07:55:19;;;;;;;;;;;;;;;7.53;63.36;102405.38;5076641;28;20296;-50
2022/10/20 07:57:44;;;;;;;;;;;;;;;7.55;63.51;102407.06;5064915;28;19929;-51
2022/10/20 08:00:10;;;;;;;;;;;;;;;7.56;63.31;102406.19;5063412;28;19924;-52
2022/10/20 08:02:35;;;;;;;;;;;;;;;7.59;63.42;102398.28;5045888;28;19924;-50
2022/10/20 08:05:01;;;;;;;;;;;;;;;7.63;63.29;102394.72;5064293;28;20376;-50
2022/10/20 08:07:26;;;;;;;;;;;;;;;7.66;63.23;102391.16;5060001;28;19962;-52
2022/10/20 08:09:51;;;;;;;;;;;;;;;7.69;63.18;102387.63;5060860;28;19963;-51
2022/10/20 08:12:16;;;;;;;;;;;;;;;7.71;63.21;102385.84;5063585;28;21077;-52
2022/10/20 08:14:43;;;;;;;;;;;;;;;7.74;63.28;102378.75;5062317;28;19920;-52
2022/10/20 08:17:09;;;;;;;;;;;;;;;7.77;63.38;102377.88;5059561;28;19932;-51
2022/10/20 08:19:34;;;;;;;;;;;;;;;7.79;63.35;102376.06;5061142;28;19917;-52
2022/10/20 08:22:00;;;;;;;;;;;;;;;7.81;63.40;102374.25;5057457;28;20015;-51
2022/10/20 08:24:25;;;;;;;;;;;;;;;7.84;63.75;102374.22;5054960;28;19927;-49
2022/10/20 08:26:50;;;;;;;;;;;;;;;7.88;63.46;102372.38;5040542;28;19920;-53
2022/10/20 08:29:16;;;;;;;;;;;;;;;7.90;63.44;102374.09;5053909;28;20069;-50
2022/10/20 08:31:42;;;;;;;;;;;;;;;7.95;63.58;102363.50;5057065;28;19924;-50
2022/10/20 08:34:07;;;;;;;;;;;;;;;7.97;63.55;102363.47;5057550;28;19962;-50
2022/10/20 08:36:33;;;;;;;;;;;;;;;8.02;63.57;102362.47;5051937;28;19936;-53
2022/10/20 08:38:58;;;;;;;;;;;;;;;8.06;63.70;102358.06;5053871;28;20160;-51
2022/10/20 08:41:26;;;;;;;;;;;;;;;8.10;63.49;102349.19;5056830;28;20164;-49
2022/10/20 08:43:53;;;;;;;;;;;;;;;8.16;63.60;102349.09;5052872;28;20053;-50
2022/10/20 08:46:21;;;;;;;;;;;;;;;8.21;63.53;102346.34;5054799;28;19924;-49
2022/10/20 08:48:48;;;;;;;;;;;;;;;8.26;63.71;102333.13;5053549;28;19935;-52
2022/10/20 08:51:23;;;;;;;;;;;;;;;8.32;63.54;102327.75;5054687;28;19924;-55
2022/10/20 08:53:50;;;;;;;;;;;;;;;8.36;63.59;102325.03;5053108;28;19950;-51
2022/10/20 08:56:16;;;;;;;;;;;;;;;8.42;63.70;102333.66;5059137;28;19944;-54
2022/10/20 08:58:43;;;;;;;;;;;;;;;8.47;63.83;102327.41;5054190;28;19927;-50
2022/10/20 09:01:19;;;;;;;;;;;;;;;8.51;63.79;102321.22;5061187;28;20335;-50
2022/10/20 09:03:47;;;;;;;;;;;;;;;8.59;63.90;102320.16;5062698;28;20384;-50
2022/10/20 09:06:14;;;;;;;;;;;;;;;8.66;63.69;102324.38;5061722;28;19924;-50
2022/10/20 09:08:40;;;;;;;;;;;;;;;8.71;63.71;102319.88;5057324;28;19916;-50
2022/10/20 09:11:07;;;;;;;;;;;;;;;8.77;63.66;102317.09;5060342;28;19924;-54
2022/10/20 09:13:33;;;;;;;;;;;;;;;8.84;63.77;102315.19;5057807;28;19921;-49
2022/10/20 09:16:07;;;;;;;;;;;;;;;8.91;63.66;102311.53;5058577;28;19966;-50
2022/10/20 09:18:33;;;;;;;;;;;;;;;8.99;63.53;102308.69;5060718;28;19921;-53
2022/10/20 09:21:04;;;;;;;;;;;;;;;9.04;63.47;102301.53;5061025;28;19924;-50
2022/10/20 09:23:38;;;;;;;;;;;;;;;9.10;63.46;102311.91;5063099;28;19913;-55
2022/10/20 09:26:03;;;;;;;;;;;;;;;9.15;63.60;102311.75;5050670;28;19921;-50
2022/10/20 09:28:29;;;;;;;;;;;;;;;9.20;63.48;102295.88;5056071;28;19927;-49
2022/10/20 09:30:55;;;;;;;;;;;;;;;9.22;63.67;102296.69;5062712;28;20384;-52
2022/10/20 09:33:23;;;;;;;;;;;;;;;9.25;63.56;102292.22;5054431;28;20459;-52
2022/10/20 09:35:49;;;;;;;;;;;;;;;9.31;63.67;102288.56;5059213;28;21368;-51
2022/10/20 09:38:21;;;;;;;;;;;;;;;9.37;63.62;102293.66;5058355;28;20404;-52
2022/10/20 09:41:13;;;;;;;;;;;;;;;9.44;63.54;102287.34;5060974;28;19928;-57
2022/10/20 09:43:51;;;;;;;;;;;;;;;9.50;63.55;102286.31;5036321;28;19916;-54
2022/10/20 09:46:19;;;;;;;;;;;;;;;9.55;63.51;102284.38;5062412;28;19921;-52
2022/10/20 09:48:47;;;;;;;;;;;;;;;9.61;63.60;102281.59;5060779;28;20415;-50
2022/10/20 09:51:30;;;;;;;;;;;;;;;9.68;63.48;102277.00;5066271;28;20579;-50
2022/10/20 09:54:01;;;;;;;;;;;;;;;9.74;63.42;102274.22;5060351;28;19916;-50
2022/10/20 09:56:35;;;;;;;;;;;;;;;9.81;63.32;102267.00;5063471;28;20412;-50
2022/10/20 09:59:01;;;;;;;;;;;;;;;9.85;63.14;102265.97;5064516;28;20018;-50
2022/10/20 10:01:27;;;;;;;;;;;;;;;9.96;63.21;102265.66;5064973;28;19928;-49
2022/10/20 10:03:57;;;;;;;;;;;;;;;10.05;63.11;102261.88;5061078;28;19923;-55
2022/10/20 10:06:25;;;;;;;;;;;;;;;10.13;62.93;102269.53;5063269;28;19927;-49
2022/10/20 10:08:51;;;;;;;;;;;;;;;10.21;62.79;102264.88;5060522;28;20419;-50
2022/10/20 10:11:18;;;;;;;;;;;;;;;10.29;62.69;102265.50;5060375;28;20480;-50
2022/10/20 10:13:47;;;;;;;;;;;;;;;10.38;62.71;102261.75;5062125;28;20385;-50
2022/10/20 10:16:15;;;;;;;;;;;;;;;10.46;62.49;102259.72;5067371;28;20489;-49
2022/10/20 10:18:42;;;;;;;;;;;;;;;10.52;62.26;102245.50;5065002;28;20262;-51
2022/10/20 10:21:08;;;;;;;;;;;;;;;10.56;62.17;102249.75;5065216;28;19920;-50
2022/10/20 10:23:39;;;;;;;;;;;;;;;10.62;62.35;102244.28;5060521;28;20059;-50
2022/10/20 10:26:24;;;;;;;;;;;;;;;10.68;62.19;102243.22;5055774;28;20309;-50
2022/10/20 10:28:56;;;;;;;;;;;;;;;10.73;62.30;102235.16;5058538;28;19916;-51
2022/10/20 10:31:22;;;;;;;;;;;;;;;10.77;62.17;102231.53;5058916;28;19920;-52
2022/10/20 10:33:49;;;;;;;;;;;;;;;10.81;62.15;102227.88;5061397;28;19931;-50
2022/10/20 10:36:34;;;;;;;;;;;;;;;10.84;62.06;102227.75;5061305;28;19924;-50
2022/10/20 10:39:01;;;;;;;;;;;;;;;10.87;62.14;102217.09;5060762;28;20380;-54
2022/10/20 10:41:26;;;;;;;;;;;;;;;10.92;62.14;102209.91;5064081;28;19932;-53
2022/10/20 10:44:16;;;;;;;;;;;;;;;10.98;61.99;102204.41;5061638;28;19912;-50
2022/10/20 10:46:56;;;;;;;;;;;;;;;11.07;61.77;102194.47;5065075;28;19916;-49
2022/10/20 10:49:34;;;;;;;;;;;;;;;11.13;61.75;102194.22;5060504;28;19943;-50
2022/10/20 10:52:02;;;;;;;;;;;;;;;11.19;61.72;102194.00;5060452;28;19956;-50
2022/10/20 10:54:27;;;;;;;;;;;;;;;11.26;61.38;102187.59;5061621;28;19921;-49
2022/10/20 10:56:59;;;;;;;;;;;;;;;11.31;61.45;102179.53;5064984;28;19920;-55
2022/10/20 10:59:31;;;;;;;;;;;;;;;11.37;61.31;102181.06;5064172;28;19916;-53
2022/10/20 11:02:15;;;;;;;;;;;;;;;11.40;61.27;102178.31;5066302;28;20152;-54
2022/10/20 11:04:46;;;;;;;;;;;;;;;11.45;61.09;102168.44;5060434;28;20408;-50
2022/10/20 11:07:34;;;;;;;;;;;;;;;11.49;61.26;102161.28;5062236;28;20374;-50
2022/10/20 11:10:18;;;;;;;;;;;;;;;11.51;61.16;102147.13;5065036;28;20033;-51
2022/10/20 11:12:46;;;;;;;;;;;;;;;11.55;61.13;102146.09;5062087;28;19962;-52
2022/10/20 11:15:11;;;;;;;;;;;;;;;11.62;60.93;102140.56;5061477;28;19960;-51
2022/10/20 11:17:55;;;;;;;;;;;;;;;11.66;60.74;102137.72;5060661;28;19924;-56
2022/10/20 11:20:33;;;;;;;;;;;;;;;11.69;60.78;102132.34;5061314;28;20306;-50
2022/10/20 11:23:16;;;;;;;;;;;;;;;11.70;60.87;102127.94;5055510;28;19921;-50
2022/10/20 11:25:49;;;;;;;;;;;;;;;11.73;60.68;102119.88;5058746;28;19916;-54
2022/10/20 11:28:28;;;;;;;;;;;;;;;11.77;60.63;102116.22;5060791;28;19920;-52
2022/10/20 11:30:55;;;;;;;;;;;;;;;11.85;60.62;102107.97;5059604;28;19927;-51
2022/10/20 11:33:22;;;;;;;;;;;;;;;11.89;60.47;102104.31;5059868;28;20066;-52
2022/10/20 11:35:57;;;;;;;;;;;;;;;11.93;60.47;102110.31;5059090;28;19974;-50
2022/10/20 11:38:30;;;;;;;;;;;;;;;11.97;60.32;102101.34;5058885;28;19920;-50
2022/10/20 11:41:00;;;;;;;;;;;;;;;12.01;60.35;102095.06;5054062;28;19966;-51
2022/10/20 11:43:31;;;;;;;;;;;;;;;12.05;60.26;102096.63;5055941;28;19989;-52
2022/10/20 11:46:03;;;;;;;;;;;;;;;12.09;60.23;102092.94;5056264;28;19932;-50
2022/10/20 11:48:37;;;;;;;;;;;;;;;12.18;60.10;102087.25;5060127;28;19920;-50
2022/10/20 11:51:09;;;;;;;;;;;;;;;12.25;59.77;102089.66;5056022;28;20084;-50
2022/10/20 11:53:39;;;;;;;;;;;;;;;12.28;59.83;102084.25;5059459;28;20296;-51
2022/10/20 11:56:19;;;;;;;;;;;;;;;12.32;59.75;102075.28;5057695;28;19921;-50
2022/10/20 11:59:03;;;;;;;;;;;;;;;12.38;59.66;102061.78;5051791;28;19978;-55
2022/10/20 12:01:28;;;;;;;;;;;;;;;12.45;59.46;102057.97;5056192;28;20354;-52
2022/10/20 12:04:12;;;;;;;;;;;;;;;12.48;59.49;102047.25;5045618;28;20436;-51
2022/10/20 12:06:56;;;;;;;;;;;;;;;12.52;59.47;102044.47;5053642;28;19970;-50
2022/10/20 12:09:28;;;;;;;;;;;;;;;12.54;59.42;102045.25;5037732;28;19974;-53
2022/10/20 12:12:02;;;;;;;;;;;;;;;12.57;59.38;102039.84;5051508;28;19925;-54
2022/10/20 12:14:39;;;;;;;;;;;;;;;12.62;59.34;102035.22;5050038;28;19920;-52
2022/10/20 12:17:11;;;;;;;;;;;;;;;12.66;59.29;102026.22;5049569;28;19921;-53
2022/10/20 12:19:37;;;;;;;;;;;;;;;12.70;59.28;102027.78;5046886;28;20048;-50
2022/10/20 12:22:25;;;;;;;;;;;;;;;12.74;59.15;102020.59;5053212;28;19936;-52
2022/10/20 12:24:50;;;;;;;;;;;;;;;12.78;59.13;102019.50;5056012;28;19967;-50
2022/10/20 12:27:23;;;;;;;;;;;;;;;12.79;59.03;102015.94;5049594;28;20793;-55
2022/10/20 12:29:54;;;;;;;;;;;;;;;12.81;59.05;102017.59;5056130;28;19927;-49
2022/10/20 12:32:23;;;;;;;;;;;;;;;12.86;58.86;102008.59;5053421;28;20114;-53
2022/10/20 12:34:51;;;;;;;;;;;;;;;12.88;58.82;102010.22;5052906;28;19921;-51
2022/10/20 12:37:25;;;;;;;;;;;;;;;12.90;58.52;102005.72;5054406;28;19924;-51
2022/10/20 12:39:52;;;;;;;;;;;;;;;12.92;58.53;102013.59;5053053;28;19921;-53
2022/10/20 12:42:19;;;;;;;;;;;;;;;12.94;58.42;102002.03;5051597;28;19932;-50
2022/10/20 12:44:45;;;;;;;;;;;;;;;12.99;58.07;102009.72;5049507;28;20389;-52
2022/10/20 12:47:17;;;;;;;;;;;;;;;13.04;58.06;102002.44;5047433;28;19925;-49
2022/10/20 12:49:51;;;;;;;;;;;;;;;13.07;58.05;101991.72;5047091;28;19931;-54
2022/10/20 12:52:20;;;;;;;;;;;;;;;13.10;57.85;101988.91;5051921;28;20016;-51